createdAt,value
2018-07-02T00:01:21.421Z,14.80
2018-07-02T00:03:50.608Z,14.70
2018-07-02T00:06:45.463Z,14.70
2018-07-02T00:09:14.609Z,14.60
2018-07-02T00:11:43.796Z,14.60
2018-07-02T00:14:12.948Z,14.50
2018-07-02T00:16:42.077Z,14.50
2018-07-02T00:19:11.265Z,14.50
2018-07-02T00:21:40.652Z,14.30
2018-07-02T00:24:09.873Z,14.30
2018-07-02T00:26:39.061Z,14.30
2018-07-02T00:29:08.297Z,14.30
2018-07-02T00:31:37.484Z,14.30
2018-07-02T00:34:06.596Z,14.30
2018-07-02T00:36:36.400Z,14.20
2018-07-02T00:39:09.390Z,14.20
2018-07-02T00:41:39.404Z,14.20
2018-07-02T00:44:08.500Z,14.10
2018-07-02T00:46:37.692Z,14.10
2018-07-02T00:49:07.501Z,14.10
2018-07-02T00:51:37.728Z,14.00
2018-07-02T00:54:06.833Z,13.80
2018-07-02T00:56:36.062Z,13.80
2018-07-02T00:59:05.333Z,13.80
2018-07-02T01:01:34.521Z,13.90
2018-07-02T01:04:03.649Z,14.00
2018-07-02T01:06:32.784Z,14.00
2018-07-02T01:09:01.973Z,14.00
2018-07-02T01:11:31.713Z,14.00
2018-07-02T01:14:00.800Z,14.00
2018-07-02T01:16:29.897Z,14.00
2018-07-02T01:18:59.008Z,14.00
2018-07-02T01:21:28.196Z,13.90
2018-07-02T01:23:57.277Z,13.90
2018-07-02T01:26:26.689Z,14.00
2018-07-02T01:28:56.574Z,13.90
2018-07-02T01:31:25.676Z,13.90
2018-07-02T01:33:55.417Z,13.80
2018-07-02T01:36:25.244Z,13.70
2018-07-02T01:38:55.060Z,13.70
2018-07-02T01:41:24.148Z,13.70
2018-07-02T01:43:53.725Z,13.70
2018-07-02T01:46:22.879Z,13.70
2018-07-02T01:48:52.118Z,13.70
2018-07-02T01:52:51.267Z,13.60
2018-07-02T01:55:20.381Z,13.50
2018-07-02T01:57:49.568Z,13.40
2018-07-02T02:00:18.958Z,13.40
2018-07-02T02:02:49.089Z,13.40
2018-07-02T02:05:18.205Z,13.40
2018-07-02T02:07:47.544Z,13.40
2018-07-02T02:10:16.672Z,13.50
2018-07-02T02:12:45.841Z,13.50
2018-07-02T02:15:15.152Z,13.40
2018-07-02T02:17:44.301Z,13.40
2018-07-02T02:20:13.482Z,13.40
2018-07-02T02:22:42.845Z,13.40
2018-07-02T02:25:13.277Z,13.40
2018-07-02T02:27:42.404Z,13.40
2018-07-02T02:30:11.574Z,13.30
2018-07-02T02:32:41.698Z,13.30
2018-07-02T02:35:12.019Z,13.30
2018-07-02T02:37:41.705Z,13.30
2018-07-02T02:40:10.843Z,13.20
2018-07-02T02:42:39.944Z,13.20
2018-07-02T02:45:09.092Z,13.10
2018-07-02T02:47:38.712Z,13.10
2018-07-02T02:50:07.757Z,13.00
2018-07-02T02:52:36.924Z,13.10
2018-07-02T02:55:06.325Z,13.00
2018-07-02T02:57:35.417Z,13.00
2018-07-02T03:00:05.425Z,12.90
2018-07-02T03:02:34.753Z,12.80
2018-07-02T03:05:03.961Z,12.80
2018-07-02T03:07:33.080Z,12.70
2018-07-02T03:10:02.565Z,12.70
2018-07-02T03:12:31.915Z,12.60
2018-07-02T03:15:01.020Z,12.60
2018-07-02T03:17:30.221Z,12.60
2018-07-02T03:19:59.317Z,12.60
2018-07-02T03:22:28.433Z,12.50
2018-07-02T03:24:57.853Z,12.50
2018-07-02T03:27:27.152Z,12.50
2018-07-02T03:29:56.305Z,12.50
2018-07-02T03:39:11.216Z,12.50
2018-07-02T03:41:40.360Z,12.30
2018-07-02T03:44:09.505Z,12.40
2018-07-02T03:46:39.116Z,12.40
2018-07-02T03:49:08.412Z,12.40
2018-07-02T03:51:37.540Z,12.40
2018-07-02T03:54:06.872Z,12.40
2018-07-02T03:56:35.969Z,12.40
2018-07-02T03:59:05.140Z,12.40
2018-07-02T04:01:34.476Z,12.40
2018-07-02T04:04:04.580Z,12.50
2018-07-02T04:06:35.405Z,12.50
2018-07-02T04:09:09.037Z,12.50
2018-07-02T04:11:38.433Z,12.50
2018-07-02T04:14:07.749Z,12.50
2018-07-02T04:16:36.993Z,12.50
2018-07-02T04:19:10.060Z,12.60
2018-07-02T04:21:40.908Z,12.70
2018-07-02T04:24:10.715Z,12.70
2018-07-02T04:26:41.640Z,12.80
2018-07-02T04:29:11.224Z,12.80
2018-07-02T04:31:40.280Z,12.90
2018-07-02T04:34:09.692Z,13.00
2018-07-02T04:36:38.802Z,13.00
2018-07-02T04:39:09.233Z,13.00
2018-07-02T04:41:38.687Z,13.10
2018-07-02T04:44:08.316Z,13.10
2018-07-02T04:46:37.600Z,13.20
2018-07-02T04:49:06.853Z,13.20
2018-07-02T04:51:36.397Z,13.30
2018-07-02T04:54:05.497Z,13.40
2018-07-02T04:56:34.683Z,13.50
2018-07-02T04:59:04.448Z,13.60
2018-07-02T05:01:33.553Z,13.80
2018-07-02T05:04:03.232Z,13.90
2018-07-02T05:06:32.403Z,14.10
2018-07-02T05:09:01.772Z,14.10
2018-07-02T05:11:31.336Z,14.20
2018-07-02T05:14:01.042Z,14.30
2018-07-02T05:16:30.232Z,14.40
2018-07-02T05:18:59.397Z,14.40
2018-07-02T05:21:28.520Z,14.50
2018-07-02T05:23:57.637Z,14.70
2018-07-02T05:26:27.077Z,14.80
2018-07-02T05:28:56.420Z,15.00
2018-07-02T05:31:25.594Z,15.00
2018-07-02T05:33:54.912Z,15.00
2018-07-02T05:36:24.016Z,15.00
2018-07-02T05:38:53.160Z,15.20
2018-07-02T05:41:22.532Z,15.30
2018-07-02T05:43:51.638Z,15.40
2018-07-02T05:46:21.032Z,15.40
2018-07-02T05:48:50.365Z,15.50
2018-07-02T05:51:19.491Z,15.70
2018-07-02T05:53:48.871Z,15.80
2018-07-02T05:56:18.832Z,15.90
2018-07-02T05:58:47.936Z,15.90
2018-07-02T06:01:17.022Z,16.10
2018-07-02T06:03:46.769Z,16.30
2018-07-02T06:06:16.380Z,16.40
2018-07-02T06:08:45.529Z,16.50
2018-07-02T06:11:14.932Z,16.60
2018-07-02T06:13:44.046Z,16.60
2018-07-02T06:16:13.169Z,16.90
2018-07-02T06:18:42.528Z,17.10
2018-07-02T06:21:12.995Z,17.10
2018-07-02T06:23:42.172Z,17.10
2018-07-02T06:26:11.298Z,17.30
2018-07-02T06:28:40.731Z,17.50
2018-07-02T06:31:09.941Z,17.50
2018-07-02T06:33:39.099Z,17.70
2018-07-02T06:36:08.173Z,18.00
2018-07-02T06:38:38.210Z,18.60
2018-07-02T06:41:07.376Z,19.10
2018-07-02T06:43:37.082Z,19.10
2018-07-02T06:46:07.645Z,18.80
2018-07-02T06:48:37.031Z,18.60
2018-07-02T06:51:06.338Z,18.80
2018-07-02T06:53:35.688Z,18.80
2018-07-02T06:56:04.925Z,18.50
2018-07-02T06:58:35.045Z,18.60
2018-07-02T07:01:04.240Z,19.00
2018-07-02T07:03:33.421Z,19.20
2018-07-02T07:06:02.584Z,19.20
2018-07-02T07:08:31.766Z,19.40
2018-07-02T07:11:01.025Z,19.60
2018-07-02T07:13:30.324Z,19.70
2018-07-02T07:16:00.461Z,19.50
2018-07-02T07:18:29.757Z,19.50
2018-07-02T07:20:58.848Z,19.70
2018-07-02T07:23:28.284Z,20.00
2018-07-02T07:25:59.093Z,20.00
2018-07-02T07:28:29.102Z,20.10
2018-07-02T07:30:58.208Z,20.10
2018-07-02T07:33:28.270Z,20.00
2018-07-02T07:35:58.325Z,20.40
2018-07-02T07:38:28.724Z,20.50
2018-07-02T07:40:57.920Z,21.10
2018-07-02T07:43:27.082Z,22.20
2018-07-02T07:45:56.277Z,23.00
2018-07-02T07:48:26.228Z,23.50
2018-07-02T07:50:55.365Z,22.80
2018-07-02T07:53:24.471Z,23.50
2018-07-02T07:55:53.690Z,24.10
2018-07-02T07:58:22.832Z,24.10
2018-07-02T08:00:52.799Z,24.10
2018-07-02T08:03:21.947Z,25.10
2018-07-02T08:05:51.082Z,25.70
2018-07-02T08:08:20.806Z,25.90
2018-07-02T08:10:50.181Z,26.00
2018-07-02T08:14:48.940Z,27.00
2018-07-02T08:17:18.253Z,26.30
2018-07-02T08:19:47.439Z,24.40
2018-07-02T08:22:17.712Z,25.90
2018-07-02T08:24:47.527Z,27.30
2018-07-02T08:27:17.676Z,25.90
2018-07-02T08:29:46.856Z,25.30
2018-07-02T08:32:16.904Z,24.80
2018-07-02T08:34:47.043Z,24.80
2018-07-02T08:37:17.213Z,25.00
2018-07-02T08:39:46.644Z,25.20
2018-07-02T08:42:16.057Z,26.20
2018-07-02T08:44:45.237Z,25.40
2018-07-02T08:47:14.473Z,26.10
2018-07-02T08:49:44.803Z,25.90
2018-07-02T08:52:14.012Z,25.80
2018-07-02T08:54:44.961Z,25.50
2018-07-02T08:57:14.210Z,25.90
2018-07-02T08:59:44.137Z,25.40
2018-07-02T09:02:14.745Z,25.70
2018-07-02T09:04:47.693Z,24.80
2018-07-02T09:07:17.805Z,25.00
2018-07-02T09:09:50.120Z,25.30
2018-07-02T09:12:21.132Z,26.40
2018-07-02T09:14:50.596Z,26.90
2018-07-02T09:17:19.739Z,26.00
2018-07-02T09:19:50.712Z,25.60
2018-07-02T09:22:20.121Z,26.80
2018-07-02T09:24:50.258Z,27.60
2018-07-02T09:27:19.430Z,26.30
2018-07-02T09:29:49.749Z,26.50
2018-07-02T09:32:19.017Z,26.80
2018-07-02T09:34:48.157Z,26.50
2018-07-02T09:37:17.509Z,27.60
2018-07-02T09:39:47.269Z,27.50
2018-07-02T09:42:16.341Z,26.00
2018-07-02T09:44:47.097Z,26.50
2018-07-02T09:47:16.228Z,26.30
2018-07-02T09:49:45.309Z,26.30
2018-07-02T09:52:14.664Z,26.20
2018-07-02T09:54:44.740Z,27.40
2018-07-02T09:57:13.775Z,27.50
2018-07-02T09:59:44.721Z,27.40
2018-07-02T10:02:15.392Z,28.20
2018-07-02T10:04:45.212Z,28.60
2018-07-02T10:07:14.791Z,28.10
2018-07-02T10:09:44.005Z,29.60
2018-07-02T10:12:13.969Z,30.00
2018-07-02T10:14:43.899Z,29.10
2018-07-02T10:17:14.093Z,28.90
2018-07-02T10:19:44.048Z,27.70
2018-07-02T10:22:13.178Z,28.50
2018-07-02T10:24:43.141Z,28.50
2018-07-02T10:27:13.045Z,28.80
2018-07-02T10:29:42.886Z,29.30
2018-07-02T10:32:12.797Z,29.20
2018-07-02T10:34:42.785Z,28.70
2018-07-02T10:37:11.853Z,28.90
2018-07-02T10:39:41.852Z,29.90
2018-07-02T10:42:11.224Z,29.60
2018-07-02T10:44:41.060Z,29.40
2018-07-02T10:47:11.911Z,30.70
2018-07-02T10:49:42.720Z,30.90
2018-07-02T10:52:12.550Z,30.00
2018-07-02T10:54:42.205Z,28.90
2018-07-02T10:57:12.150Z,28.90
2018-07-02T10:59:41.281Z,28.10
2018-07-02T11:02:11.089Z,27.90
2018-07-02T11:04:40.185Z,28.90
2018-07-02T11:07:09.376Z,28.80
2018-07-02T11:16:23.392Z,29.50
2018-07-02T11:18:52.565Z,31.20
2018-07-02T11:21:21.664Z,30.00
2018-07-02T11:23:50.805Z,29.50
2018-07-02T11:26:19.952Z,30.40
2018-07-02T11:28:49.132Z,29.90
2018-07-02T11:31:18.248Z,30.20
2018-07-02T11:33:47.964Z,30.80
2018-07-02T11:36:17.311Z,31.60
2018-07-02T11:38:46.562Z,31.70
2018-07-02T11:41:15.761Z,30.60
2018-07-02T11:43:44.938Z,29.90
2018-07-02T11:46:14.476Z,29.50
2018-07-02T11:48:43.677Z,30.40
2018-07-02T11:51:15.440Z,31.50
2018-07-02T11:53:44.992Z,32.20
2018-07-02T11:56:14.632Z,32.30
2018-07-02T11:58:44.103Z,33.30
2018-07-02T12:01:14.022Z,33.20
2018-07-02T12:03:43.288Z,33.50
2018-07-02T12:06:12.512Z,31.40
2018-07-02T12:08:41.669Z,30.40
2018-07-02T12:11:11.008Z,31.00
2018-07-02T12:13:40.629Z,31.80
2018-07-02T12:16:10.527Z,30.50
2018-07-02T12:18:39.648Z,30.40
2018-07-02T12:21:09.389Z,31.50
2018-07-02T12:23:39.001Z,31.80
2018-07-02T12:26:09.318Z,31.20
2018-07-02T12:28:38.416Z,30.90
2018-07-02T12:31:07.487Z,31.30
2018-07-02T12:33:36.625Z,30.40
2018-07-02T12:36:06.857Z,31.40
2018-07-02T12:38:36.894Z,31.40
2018-07-02T12:41:07.063Z,31.70
2018-07-02T12:43:38.673Z,31.40
2018-07-02T12:46:09.216Z,30.20
2018-07-02T12:48:40.356Z,31.40
2018-07-02T12:51:10.565Z,31.50
2018-07-02T12:53:40.237Z,30.60
2018-07-02T12:56:09.334Z,30.20
2018-07-02T12:58:39.429Z,30.90
2018-07-02T13:01:08.568Z,31.50
2018-07-02T13:03:37.709Z,31.30
2018-07-02T13:06:07.351Z,31.00
2018-07-02T13:08:36.556Z,31.20
2018-07-02T13:11:05.718Z,31.50
2018-07-02T13:13:35.895Z,31.00
2018-07-02T13:16:05.547Z,30.70
2018-07-02T13:18:35.282Z,31.10
2018-07-02T13:21:04.500Z,31.50
2018-07-02T13:23:34.517Z,30.80
2018-07-02T13:26:03.653Z,30.00
2018-07-02T13:28:32.814Z,29.60
2018-07-02T13:31:02.219Z,31.30
2018-07-02T13:33:31.306Z,31.70
2018-07-02T13:36:00.674Z,30.90
2018-07-02T13:38:30.409Z,31.00
2018-07-02T13:40:59.717Z,30.50
2018-07-02T13:43:29.139Z,30.20
2018-07-02T13:45:58.270Z,30.10
2018-07-02T13:48:27.357Z,31.30
2018-07-02T13:50:56.925Z,30.70
2018-07-02T13:53:26.179Z,30.90
2018-07-02T13:55:56.139Z,31.20
2018-07-02T13:58:26.256Z,30.50
2018-07-02T14:00:56.244Z,30.10
2018-07-02T14:03:25.507Z,30.90
2018-07-02T14:05:55.307Z,31.70
2018-07-02T14:08:24.725Z,31.50
2018-07-02T14:10:53.922Z,31.50
2018-07-02T14:13:23.057Z,31.70
2018-07-02T14:15:52.545Z,32.40
2018-07-02T14:18:22.005Z,32.60
2018-07-02T14:20:52.213Z,32.20
2018-07-02T14:23:22.835Z,31.60
2018-07-02T14:25:52.236Z,31.00
2018-07-02T14:28:22.277Z,31.60
2018-07-02T14:30:52.742Z,32.10
2018-07-02T14:33:22.041Z,31.80
2018-07-02T14:35:52.291Z,32.50
2018-07-02T14:38:21.489Z,32.50
2018-07-02T14:40:52.036Z,32.00
2018-07-02T14:43:22.634Z,30.90
2018-07-02T14:45:52.123Z,30.50
2018-07-02T14:48:23.570Z,31.20
2018-07-02T14:50:52.823Z,31.20
2018-07-02T14:53:23.670Z,31.10
2018-07-02T14:56:03.452Z,32.00
2018-07-02T14:58:32.923Z,31.60
2018-07-02T15:01:04.251Z,30.60
2018-07-02T15:03:34.495Z,30.40
2018-07-02T15:06:04.931Z,30.00
2018-07-02T15:08:35.037Z,30.50
2018-07-02T15:11:06.373Z,31.10
2018-07-02T15:13:36.980Z,31.50
2018-07-02T15:16:08.138Z,30.70
2018-07-02T15:18:39.652Z,30.20
2018-07-02T15:21:09.177Z,30.90
2018-07-02T15:23:38.458Z,31.20
2018-07-02T15:26:07.630Z,31.10
2018-07-02T15:28:37.474Z,30.30
2018-07-02T15:31:08.565Z,30.90
2018-07-02T15:33:37.693Z,30.90
2018-07-02T15:36:08.123Z,30.60
2018-07-02T15:38:37.292Z,29.80
2018-07-02T15:41:06.484Z,29.20
2018-07-02T15:43:36.657Z,29.20
2018-07-02T15:46:05.813Z,28.90
2018-07-02T15:48:34.876Z,28.50
2018-07-02T15:51:05.228Z,28.60
2018-07-02T15:53:35.309Z,28.30
2018-07-02T15:56:04.405Z,28.00
2018-07-02T15:58:33.570Z,28.00
2018-07-02T16:01:04.040Z,27.80
2018-07-02T16:03:34.856Z,28.00
2018-07-02T16:06:04.006Z,27.90
2018-07-02T16:08:33.222Z,27.90
2018-07-02T16:11:02.461Z,28.00
2018-07-02T16:13:33.512Z,28.20
2018-07-02T16:16:04.550Z,28.30
2018-07-02T16:18:34.314Z,27.40
2018-07-02T16:21:04.920Z,27.40
2018-07-02T16:23:34.026Z,27.60
2018-07-02T16:26:03.169Z,27.30
2018-07-02T16:28:33.241Z,27.10
2018-07-02T16:31:02.441Z,27.10
2018-07-02T16:33:31.807Z,27.20
2018-07-02T16:36:01.909Z,27.00
2018-07-02T16:38:31.313Z,27.10
2018-07-02T16:41:01.784Z,27.20
2018-07-02T16:43:30.964Z,27.00
2018-07-02T16:46:00.089Z,26.90
2018-07-02T16:48:29.461Z,26.80
2018-07-02T16:50:59.057Z,26.90
2018-07-02T16:53:28.181Z,26.80
2018-07-02T16:55:57.557Z,26.80
2018-07-02T16:58:26.694Z,26.80
2018-07-02T17:00:56.036Z,26.80
2018-07-02T17:03:25.364Z,26.50
2018-07-02T17:05:54.460Z,26.40
2018-07-02T17:08:23.589Z,26.50
2018-07-02T17:10:52.972Z,26.50
2018-07-02T17:13:22.133Z,26.50
2018-07-02T17:15:51.273Z,26.40
2018-07-02T17:18:21.376Z,26.40
2018-07-02T17:20:50.496Z,26.30
2018-07-02T17:23:21.294Z,26.10
2018-07-02T17:25:50.428Z,26.00
2018-07-02T17:28:19.520Z,26.00
2018-07-02T17:30:48.889Z,25.90
2018-07-02T17:33:17.994Z,25.80
2018-07-02T17:35:47.185Z,25.80
2018-07-02T17:38:16.573Z,25.90
2018-07-02T17:40:45.697Z,25.80
2018-07-02T17:43:14.776Z,25.90
2018-07-02T17:45:44.073Z,25.70
2018-07-02T17:48:13.245Z,25.60
2018-07-02T17:50:42.413Z,25.50
2018-07-02T17:53:11.485Z,25.50
2018-07-02T17:55:41.188Z,25.40
2018-07-02T17:58:10.265Z,25.30
2018-07-02T18:00:39.408Z,25.20
2018-07-02T18:03:08.504Z,25.30
2018-07-02T18:05:37.658Z,25.20
2018-07-02T18:08:07.156Z,25.30
2018-07-02T18:10:36.296Z,25.20
2018-07-02T18:13:05.732Z,25.10
2018-07-02T18:15:34.829Z,25.10
2018-07-02T18:18:03.924Z,25.00
2018-07-02T18:20:33.043Z,25.00
2018-07-02T18:23:02.367Z,25.00
2018-07-02T18:25:31.572Z,25.00
2018-07-02T18:28:00.685Z,25.00
2018-07-02T18:30:29.853Z,24.90
2018-07-02T18:32:59.053Z,24.80
2018-07-02T18:35:28.198Z,24.70
2018-07-02T18:37:57.785Z,24.60
2018-07-02T18:40:26.980Z,24.60
2018-07-02T18:42:56.304Z,24.60
2018-07-02T18:45:25.434Z,24.50
2018-07-02T18:47:54.545Z,24.40
2018-07-02T18:50:23.761Z,24.40
2018-07-02T18:52:53.425Z,24.30
2018-07-02T18:55:22.642Z,24.20
2018-07-02T18:57:51.697Z,24.20
2018-07-02T19:00:20.879Z,24.10
2018-07-02T19:02:50.249Z,23.90
2018-07-02T19:05:19.392Z,23.90
2018-07-02T19:07:48.481Z,23.90
2018-07-02T19:10:17.625Z,23.90
2018-07-02T19:12:46.730Z,24.00
2018-07-02T19:15:16.077Z,23.80
2018-07-02T19:17:45.167Z,23.70
2018-07-02T19:20:15.160Z,23.50
2018-07-02T19:22:44.273Z,23.30
2018-07-02T19:25:13.433Z,23.20
2018-07-02T19:27:42.836Z,23.00
2018-07-02T19:30:11.956Z,22.80
2018-07-02T19:32:41.069Z,22.60
2018-07-02T19:35:10.164Z,22.40
2018-07-02T19:37:39.381Z,22.20
2018-07-02T19:40:08.592Z,22.10
2018-07-02T19:42:37.700Z,22.10
2018-07-02T19:45:07.042Z,21.90
2018-07-02T19:47:36.189Z,21.80
2018-07-02T19:50:05.601Z,21.70
2018-07-02T19:52:35.196Z,21.60
2018-07-02T19:55:06.038Z,21.40
2018-07-02T19:57:35.108Z,21.30
2018-07-02T20:00:05.101Z,21.10
2018-07-02T20:02:34.240Z,21.00
2018-07-02T20:05:03.338Z,20.90
2018-07-02T20:07:32.521Z,20.80
2018-07-02T20:10:01.604Z,20.60
2018-07-02T20:12:30.762Z,20.60
2018-07-02T20:15:00.116Z,20.50
2018-07-02T20:17:29.187Z,20.40
2018-07-02T20:19:58.309Z,20.30
2018-07-02T20:22:27.412Z,20.20
2018-07-02T20:24:56.517Z,20.10
2018-07-02T20:27:25.748Z,20.00
2018-07-02T20:29:54.920Z,19.90
2018-07-02T20:32:24.065Z,19.80
2018-07-02T20:34:53.269Z,19.70
2018-07-02T20:37:22.412Z,19.60
2018-07-02T20:39:51.549Z,19.50
2018-07-02T20:42:20.657Z,19.50
2018-07-02T20:44:50.104Z,19.30
2018-07-02T20:47:19.147Z,19.30
2018-07-02T20:49:48.276Z,19.20
2018-07-02T20:52:17.676Z,19.10
2018-07-02T20:54:46.764Z,19.10
2018-07-02T20:57:15.863Z,19.00
2018-07-02T20:59:44.992Z,19.00
2018-07-02T21:02:14.042Z,19.00
2018-07-02T21:04:43.339Z,18.90
2018-07-02T21:07:12.605Z,18.90
2018-07-02T21:09:41.723Z,18.80
2018-07-02T21:12:10.877Z,18.80
2018-07-02T21:14:39.949Z,18.70
2018-07-02T21:17:09.121Z,18.50
2018-07-02T21:19:38.248Z,18.40
2018-07-02T21:22:07.929Z,18.40
2018-07-02T21:24:37.061Z,18.40
2018-07-02T21:27:06.252Z,18.30
2018-07-02T21:29:35.760Z,18.20
2018-07-02T21:32:04.897Z,18.10
2018-07-02T21:34:34.028Z,18.10
2018-07-02T21:37:03.145Z,18.00
2018-07-02T21:39:32.250Z,17.90
2018-07-02T21:42:01.449Z,18.00
2018-07-02T21:44:30.857Z,17.80
2018-07-02T21:46:59.966Z,17.70
2018-07-02T21:49:29.100Z,17.60
2018-07-02T21:51:58.470Z,17.60
2018-07-02T21:54:27.656Z,17.50
2018-07-02T21:56:56.708Z,17.50
2018-07-02T21:59:26.081Z,17.40
2018-07-02T22:01:55.205Z,17.40
2018-07-02T22:04:24.302Z,17.30
2018-07-02T22:06:53.680Z,17.30
2018-07-02T22:09:22.836Z,17.20
2018-07-02T22:11:51.897Z,17.20
2018-07-02T22:14:21.344Z,17.10
2018-07-02T22:16:50.434Z,17.10
2018-07-02T22:19:19.603Z,17.10
2018-07-02T22:21:48.729Z,17.00
2018-07-02T22:24:17.808Z,16.90
2018-07-02T22:26:47.008Z,17.00
2018-07-02T22:29:16.385Z,16.90
2018-07-02T22:31:45.480Z,16.80
2018-07-02T22:34:14.780Z,16.70
2018-07-02T22:36:44.140Z,16.70
2018-07-02T22:39:13.264Z,16.70
2018-07-02T22:41:42.401Z,16.60
2018-07-02T22:44:11.797Z,16.40
2018-07-02T22:46:40.925Z,16.30
2018-07-02T22:49:10.052Z,16.40
2018-07-02T22:51:39.138Z,16.20
2018-07-02T22:54:08.236Z,16.20
2018-07-02T22:56:37.394Z,16.20
2018-07-02T22:59:06.636Z,16.20
2018-07-02T23:01:35.788Z,16.10
2018-07-02T23:04:05.039Z,16.10
2018-07-02T23:06:34.273Z,16.10
2018-07-02T23:09:04.476Z,16.10
2018-07-02T23:11:33.593Z,16.00
2018-07-02T23:14:02.949Z,16.00
2018-07-02T23:16:32.062Z,15.90
2018-07-02T23:19:01.157Z,15.90
2018-07-02T23:21:30.601Z,15.90
2018-07-02T23:24:01.469Z,15.90
2018-07-02T23:26:30.697Z,15.90
2018-07-02T23:28:59.807Z,15.90
2018-07-02T23:31:29.136Z,15.80
2018-07-02T23:33:58.284Z,15.70
2018-07-02T23:36:27.453Z,15.70
2018-07-02T23:38:56.592Z,15.70
2018-07-02T23:41:25.713Z,15.70
2018-07-02T23:43:54.817Z,15.60
2018-07-02T23:46:24.284Z,15.60
2018-07-02T23:48:53.627Z,15.60
2018-07-02T23:51:22.716Z,15.50
2018-07-02T23:53:51.821Z,15.40
2018-07-02T23:56:20.913Z,15.40
2018-07-02T23:58:49.997Z,15.30
